Time;durP1;ratioP1;P1;durP2;ratioP2;P2;SDS_P1;SDS_P2;PMS_P1;PMS_P2;Temp;Humidity;BMP_temperature;BMP_pressure;BME280_temperature;BME280_humidity;BME280_pressure;Samples;Min_cycle;Max_cycle;Signal;HPM_P1;HPM_P2
2023/04/15 00:00:03;;;;;;;694.50;658.40;;;3.30;99.90;;;;;;6245023;22;20422;-80
2023/04/15 00:02:40;;;;;;;679.27;643.53;;;3.60;99.90;;;;;;6255264;23;20929;-80
2023/04/15 00:05:14;;;;;;;643.87;613.57;;;3.50;99.90;;;;;;6243883;23;20446;-81
2023/04/15 00:07:55;;;;;;;707.80;671.83;;;3.50;99.90;;;;;;6256045;23;20415;-80
2023/04/15 00:10:33;;;;;;;747.40;707.30;;;3.50;99.90;;;;;;6255793;22;20438;-80
2023/04/15 00:13:04;;;;;;;786.77;741.93;;;3.30;99.90;;;;;;6255737;22;20500;-80
2023/04/15 00:15:34;;;;;;;791.67;745.70;;;3.30;99.90;;;;;;6255614;23;20415;-81
2023/04/15 00:18:06;;;;;;;789.70;742.53;;;3.10;99.90;;;;;;6244950;22;20954;-81
2023/04/15 00:20:34;;;;;;;823.83;771.83;;;3.00;99.90;;;;;;6245734;22;20438;-80
2023/04/15 00:23:06;;;;;;;803.87;751.60;;;3.10;99.90;;;;;;6245079;22;20774;-80
2023/04/15 00:25:36;;;;;;;802.60;749.57;;;3.00;99.90;;;;;;6243659;23;20477;-80
2023/04/15 00:28:04;;;;;;;783.67;731.77;;;2.90;99.90;;;;;;6243013;23;20427;-80
2023/04/15 00:30:33;;;;;;;792.90;741.80;;;2.80;99.90;;;;;;6255437;22;20816;-80
2023/04/15 00:33:03;;;;;;;786.53;735.87;;;2.70;99.90;;;;;;6244971;22;20502;-80
2023/04/15 00:35:35;;;;;;;768.07;719.07;;;2.80;99.90;;;;;;6254098;22;20793;-81
2023/04/15 00:38:04;;;;;;;758.83;711.43;;;2.70;99.90;;;;;;6245648;23;20395;-81
2023/04/15 00:40:32;;;;;;;743.80;698.50;;;2.80;99.90;;;;;;6218181;23;20926;-81
2023/04/15 00:43:04;;;;;;;732.67;689.57;;;2.70;99.90;;;;;;6218057;23;20467;-80
2023/04/15 00:45:33;;;;;;;803.90;752.17;;;2.70;99.90;;;;;;6245487;23;20446;-80
2023/04/15 00:48:08;;;;;;;804.40;753.20;;;2.70;99.90;;;;;;6254948;23;20935;-80
2023/04/15 00:50:46;;;;;;;794.67;744.80;;;2.80;99.90;;;;;;6219664;23;20395;-81
2023/04/15 00:53:18;;;;;;;767.93;719.30;;;2.90;99.90;;;;;;6218275;23;21069;-81
2023/04/15 00:58:40;;;;;;;752.40;705.40;;;2.80;99.90;;;;;;6244065;23;20411;-80
2023/04/15 01:01:15;;;;;;;777.13;724.90;;;2.90;99.90;;;;;;6244754;23;20494;-81
2023/04/15 01:03:43;;;;;;;782.30;732.00;;;2.70;99.90;;;;;;6243390;22;20437;-80
2023/04/15 01:06:13;;;;;;;777.70;727.40;;;2.70;99.90;;;;;;6217929;23;20442;-80
2023/04/15 01:08:45;;;;;;;769.23;719.50;;;2.60;99.90;;;;;;6245445;23;20500;-80
2023/04/15 01:11:22;;;;;;;778.83;727.87;;;2.60;99.90;;;;;;6218062;23;20421;-81
2023/04/15 01:14:03;;;;;;;825.90;767.67;;;2.40;99.90;;;;;;6244557;22;20443;-80
2023/04/15 01:16:35;;;;;;;813.90;757.50;;;2.60;99.90;;;;;;6217752;23;20415;-80
2023/04/15 01:19:03;;;;;;;814.10;757.40;;;2.60;99.90;;;;;;6244569;23;20761;-81
2023/04/15 01:21:42;;;;;;;819.13;764.67;;;2.50;99.90;;;;;;6217800;23;20415;-80
2023/04/15 01:24:17;;;;;;;808.57;755.70;;;2.40;99.90;;;;;;6254726;22;20469;-80
2023/04/15 01:26:51;;;;;;;789.70;738.07;;;2.30;99.90;;;;;;6240321;23;20435;-80
2023/04/15 01:29:22;;;;;;;778.97;728.23;;;2.30;99.90;;;;;;6244386;23;20410;-80
2023/04/15 01:32:06;;;;;;;810.60;756.50;;;2.20;99.90;;;;;;6217961;23;20899;-81
2023/04/15 01:34:35;;;;;;;822.60;765.53;;;2.20;99.90;;;;;;6245019;22;20431;-80
2023/04/15 01:37:06;;;;;;;826.40;770.13;;;2.20;99.90;;;;;;6235530;23;21101;-80
2023/04/15 01:39:34;;;;;;;806.13;752.30;;;2.20;99.90;;;;;;6243176;23;20419;-81
2023/04/15 01:42:11;;;;;;;786.73;735.07;;;2.10;99.90;;;;;;6244442;22;20443;-80
2023/04/15 01:44:41;;;;;;;821.13;762.53;;;2.10;99.90;;;;;;6218175;23;20822;-80
2023/04/15 01:47:11;;;;;;;838.93;778.83;;;2.10;99.90;;;;;;6242752;23;20431;-80
2023/04/15 01:49:50;;;;;;;838.30;775.03;;;2.10;99.90;;;;;;6243510;23;20752;-81
2023/04/15 01:52:18;;;;;;;835.07;771.83;;;1.90;99.90;;;;;;6243114;23;20395;-81
2023/04/15 01:54:46;;;;;;;822.90;764.40;;;2.20;99.90;;;;;;6244046;22;20431;-81
2023/04/15 01:57:25;;;;;;;848.90;786.73;;;2.10;99.90;;;;;;6252852;23;20414;-80
2023/04/15 01:59:54;;;;;;;845.33;784.30;;;2.20;99.90;;;;;;6244139;22;20415;-80
2023/04/15 02:02:24;;;;;;;831.47;773.37;;;2.10;99.90;;;;;;6243911;23;20499;-80
2023/04/15 02:04:56;;;;;;;820.47;764.40;;;2.00;99.90;;;;;;6244519;22;20438;-80
2023/04/15 02:07:31;;;;;;;830.17;774.40;;;2.10;99.90;;;;;;6242526;23;20454;-81
2023/04/15 02:10:00;;;;;;;823.43;767.83;;;2.20;99.90;;;;;;6243995;22;20410;-80
2023/04/15 02:12:56;;;;;;;815.20;761.57;;;2.20;99.90;;;;;;6243878;23;20418;-80
2023/04/15 02:15:23;;;;;;;816.20;762.30;;;2.20;99.90;;;;;;6242235;23;20414;-81
2023/04/15 02:17:55;;;;;;;821.73;765.57;;;2.30;99.90;;;;;;6242198;23;20445;-80
2023/04/15 02:20:29;;;;;;;819.23;763.83;;;2.20;99.90;;;;;;6242615;23;20415;-80
2023/04/15 02:23:06;;;;;;;825.40;770.87;;;2.00;99.90;;;;;;6243504;22;20994;-80
2023/04/15 02:25:43;;;;;;;811.03;756.67;;;2.00;99.90;;;;;;6244048;23;20403;-80
2023/04/15 02:28:14;;;;;;;834.73;775.10;;;2.00;99.90;;;;;;6244361;23;20520;-80
2023/04/15 02:30:49;;;;;;;836.73;778.50;;;2.00;99.90;;;;;;6254161;23;20899;-80
2023/04/15 02:33:22;;;;;;;850.97;789.87;;;1.80;99.90;;;;;;6253892;22;20956;-80
2023/04/15 02:35:52;;;;;;;845.00;786.60;;;1.80;99.90;;;;;;6250322;22;20418;-80
2023/04/15 02:38:19;;;;;;;838.83;781.83;;;1.70;99.90;;;;;;6217205;23;20469;-79
2023/04/15 02:40:49;;;;;;;839.23;781.60;;;1.60;99.90;;;;;;6242650;23;20421;-79
2023/04/15 02:43:25;;;;;;;847.07;787.90;;;1.80;99.90;;;;;;6217196;23;20461;-79
2023/04/15 02:45:56;;;;;;;849.00;788.70;;;1.90;99.90;;;;;;6243916;23;20474;-79
2023/04/15 02:48:31;;;;;;;834.30;775.83;;;1.90;99.90;;;;;;6218814;23;20426;-79
2023/04/15 02:51:14;;;;;;;835.97;776.23;;;1.90;99.90;;;;;;6219499;23;20454;-79
2023/04/15 02:56:26;;;;;;;818.97;758.10;;;1.90;99.90;;;;;;6243584;23;20403;-80
2023/04/15 02:58:57;;;;;;;806.67;747.73;;;1.90;99.90;;;;;;6217249;23;20447;-80
2023/04/15 03:01:26;;;;;;;821.50;761.73;;;1.90;99.90;;;;;;6254157;23;20405;-79
2023/04/15 03:03:55;;;;;;;827.53;768.93;;;1.80;99.90;;;;;;6217915;23;20438;-79
2023/04/15 03:06:25;;;;;;;814.20;755.90;;;1.70;99.90;;;;;;6218853;23;20407;-79
2023/04/15 03:08:55;;;;;;;816.37;755.70;;;1.60;99.90;;;;;;6245187;23;20435;-79
2023/04/15 03:11:27;;;;;;;834.17;775.37;;;1.60;99.90;;;;;;6245453;23;20421;-79
2023/04/15 03:16:38;;;;;;;819.80;757.70;;;1.50;99.90;;;;;;6245360;23;20430;-79
2023/04/15 03:19:11;;;;;;;839.93;774.60;;;1.50;99.90;;;;;;6245761;23;20954;-79
2023/04/15 03:21:43;;;;;;;862.97;795.70;;;1.50;99.90;;;;;;6245490;23;20410;-79
2023/04/15 03:24:23;;;;;;;852.80;785.80;;;1.60;99.90;;;;;;6245638;22;20427;-79
2023/04/15 03:29:40;;;;;;;826.53;761.37;;;1.50;99.90;;;;;;6245307;23;20407;-80
2023/04/15 03:32:09;;;;;;;847.70;781.60;;;1.50;99.90;;;;;;6218907;23;20424;-79
2023/04/15 03:34:40;;;;;;;843.43;778.63;;;1.50;99.90;;;;;;6218789;23;20431;-79
2023/04/15 03:37:10;;;;;;;841.53;775.03;;;1.40;99.90;;;;;;6231185;23;20415;-80
2023/04/15 03:39:38;;;;;;;854.00;788.50;;;1.50;99.90;;;;;;6245580;22;20461;-79
2023/04/15 03:42:07;;;;;;;875.87;805.90;;;1.30;99.90;;;;;;6245498;23;20490;-79
2023/04/15 03:44:42;;;;;;;857.20;789.20;;;1.30;99.90;;;;;;6254138;22;20422;-79
2023/04/15 03:47:10;;;;;;;847.83;780.83;;;1.20;99.90;;;;;;6245454;23;20413;-79
2023/04/15 03:49:37;;;;;;;840.47;772.67;;;1.20;99.90;;;;;;6245277;22;20919;-79
2023/04/15 03:52:05;;;;;;;850.50;783.30;;;1.20;99.90;;;;;;6245259;22;20411;-79
2023/04/15 03:54:33;;;;;;;857.43;789.97;;;1.20;99.90;;;;;;6245343;22;20437;-79
2023/04/15 03:57:02;;;;;;;850.95;783.85;;;1.20;99.90;;;;;;6244719;22;20919;-79
2023/04/15 03:59:32;;;;;;;840.97;773.90;;;1.20;99.90;;;;;;6245733;23;20165;-79
2023/04/15 04:02:06;;;;;;;850.13;781.23;;;1.20;99.90;;;;;;6244841;23;21010;-79
2023/04/15 04:04:36;;;;;;;855.53;782.23;;;1.30;99.90;;;;;;6245540;22;20427;-79
2023/04/15 04:07:07;;;;;;;840.20;767.73;;;1.40;99.90;;;;;;6243638;23;20461;-79
2023/04/15 04:09:34;;;;;;;839.47;766.97;;;1.30;99.90;;;;;;6244912;22;20495;-77
2023/04/15 04:12:06;;;;;;;846.37;775.03;;;1.40;99.90;;;;;;6243669;23;20791;-79
2023/04/15 04:14:38;;;;;;;838.77;767.27;;;1.60;99.90;;;;;;6254894;22;20442;-79
2023/04/15 04:19:53;;;;;;;830.73;760.77;;;1.50;99.90;;;;;;6237434;22;20550;-79
2023/04/15 04:22:24;;;;;;;832.57;762.60;;;1.50;99.90;;;;;;6218224;23;20490;-79
2023/04/15 04:24:53;;;;;;;825.00;757.00;;;1.50;99.90;;;;;;6218328;23;20435;-79
2023/04/15 04:27:28;;;;;;;831.87;763.10;;;1.40;99.90;;;;;;6217938;23;20421;-78
2023/04/15 04:30:07;;;;;;;831.33;763.70;;;1.40;99.90;;;;;;6255253;23;20883;-77
2023/04/15 04:32:43;;;;;;;828.93;761.07;;;1.40;99.90;;;;;;6254965;23;20690;-78
2023/04/15 04:35:22;;;;;;;829.20;762.10;;;1.50;99.90;;;;;;6218036;23;20422;-78
2023/04/15 04:37:53;;;;;;;825.00;757.80;;;1.40;99.90;;;;;;6245574;23;20427;-79
2023/04/15 04:40:30;;;;;;;820.40;751.90;;;1.50;99.90;;;;;;6218255;23;20447;-79
2023/04/15 04:43:10;;;;;;;828.10;757.80;;;1.50;99.90;;;;;;6244091;23;20830;-78
2023/04/15 04:45:42;;;;;;;822.13;751.20;;;1.40;99.90;;;;;;6244426;23;20399;-79
2023/04/15 04:53:49;;;;;;;847.28;776.70;;;1.50;99.90;;;;;;6244037;23;20442;-79
2023/04/15 04:56:25;;;;;;;842.10;771.13;;;1.30;99.90;;;;;;6217903;23;20172;-79
2023/04/15 04:58:56;;;;;;;833.53;762.63;;;1.50;99.90;;;;;;6245264;23;20773;-78
2023/04/15 05:01:43;;;;;;;837.90;765.73;;;1.50;99.90;;;;;;6254111;23;20406;-79
2023/04/15 05:04:48;;;;;;;842.67;769.40;;;1.50;99.90;;;;;;6254930;23;20513;-80
2023/04/15 05:15:19;;;;;;;830.33;764.63;;;1.80;99.90;;;;;;6239747;22;20237;-79
2023/04/15 05:18:00;;;;;;;838.27;774.70;;;2.00;99.90;;;;;;6254821;23;20868;-79
2023/04/15 05:20:26;;;;;;;841.20;774.23;;;2.00;99.90;;;;;;6244503;23;20403;-79
2023/04/15 05:22:53;;;;;;;843.90;774.80;;;2.10;99.90;;;;;;6244251;22;20407;-79
2023/04/15 05:25:23;;;;;;;840.57;771.00;;;2.20;99.90;;;;;;6244529;23;20446;-78
2023/04/15 05:27:51;;;;;;;827.00;759.17;;;2.30;99.90;;;;;;6244383;23;20430;-79
2023/04/15 05:30:24;;;;;;;822.30;755.00;;;2.40;99.90;;;;;;6244440;23;20411;-79
2023/04/15 05:32:58;;;;;;;823.73;757.10;;;2.50;99.90;;;;;;6243101;22;20411;-79
2023/04/15 05:35:25;;;;;;;823.30;757.20;;;2.50;99.90;;;;;;6244101;23;20450;-78
2023/04/15 05:37:53;;;;;;;813.10;747.80;;;2.60;99.90;;;;;;6243694;23;20935;-79
2023/04/15 05:40:20;;;;;;;815.83;751.00;;;2.70;99.90;;;;;;6217271;23;20426;-79
2023/04/15 05:42:50;;;;;;;816.83;752.73;;;2.90;99.90;;;;;;6244189;22;20416;-79
2023/04/15 05:45:22;;;;;;;815.40;750.30;;;3.10;99.90;;;;;;6244330;23;20490;-78
2023/04/15 05:47:53;;;;;;;819.03;754.30;;;3.20;99.90;;;;;;6244602;23;20454;-78
2023/04/15 05:50:20;;;;;;;815.90;748.53;;;3.40;99.90;;;;;;6244177;23;20453;-79
2023/04/15 05:52:47;;;;;;;823.97;757.87;;;3.70;99.90;;;;;;6243673;22;20446;-78
2023/04/15 05:55:16;;;;;;;807.23;743.53;;;4.00;99.90;;;;;;6244070;23;20411;-78
2023/04/15 05:57:49;;;;;;;799.17;734.43;;;4.20;99.90;;;;;;6242829;23;20415;-79
2023/04/15 06:00:30;;;;;;;807.70;748.00;;;4.50;99.90;;;;;;6216810;23;20752;-80
2023/04/15 06:02:57;;;;;;;826.47;772.33;;;4.80;99.90;;;;;;6243812;22;20458;-79
2023/04/15 06:05:25;;;;;;;818.10;763.93;;;5.00;99.90;;;;;;6242953;23;20425;-79
2023/04/15 06:07:52;;;;;;;809.90;759.30;;;5.20;99.90;;;;;;6243186;23;20494;-79
2023/04/15 06:10:19;;;;;;;815.27;763.97;;;5.30;99.90;;;;;;6217395;23;20439;-79
2023/04/15 06:12:46;;;;;;;772.37;730.00;;;5.30;99.90;;;;;;6242869;22;20411;-79
2023/04/15 06:15:14;;;;;;;761.70;720.80;;;5.50;99.90;;;;;;6238447;23;20502;-79
2023/04/15 06:17:42;;;;;;;718.30;682.60;;;5.60;99.90;;;;;;6244181;22;20411;-79
2023/04/15 06:20:13;;;;;;;681.57;650.07;;;5.80;99.90;;;;;;6244392;22;20438;-79
2023/04/15 06:22:40;;;;;;;626.67;599.40;;;5.90;99.90;;;;;;6244533;22;20396;-79
2023/04/15 06:25:09;;;;;;;601.87;576.97;;;5.90;99.90;;;;;;6241398;23;20447;-79
2023/04/15 06:27:37;;;;;;;552.77;530.67;;;6.10;99.90;;;;;;6216831;23;20415;-80
2023/04/15 06:30:06;;;;;;;473.07;455.53;;;6.20;99.90;;;;;;6242850;23;20511;-79
2023/04/15 06:32:36;;;;;;;372.47;359.30;;;6.30;99.90;;;;;;6242762;23;20421;-79
2023/04/15 06:35:05;;;;;;;297.97;286.67;;;6.30;99.90;;;;;;6243737;22;20493;-79
2023/04/15 06:37:36;;;;;;;194.67;187.03;;;6.50;99.90;;;;;;6242623;22;20415;-79
2023/04/15 06:40:04;;;;;;;171.37;164.03;;;6.50;99.90;;;;;;6245608;23;20434;-79
2023/04/15 06:42:31;;;;;;;150.60;144.47;;;6.60;99.90;;;;;;6245270;23;20439;-79
2023/04/15 06:44:59;;;;;;;165.37;158.50;;;6.70;99.90;;;;;;6243043;22;20757;-79
2023/04/15 06:47:30;;;;;;;176.00;168.90;;;6.80;99.90;;;;;;6243625;23;20465;-79
2023/04/15 06:50:13;;;;;;;181.33;174.13;;;6.90;99.90;;;;;;6244416;22;20419;-78
2023/04/15 06:52:50;;;;;;;197.83;189.33;;;7.10;99.90;;;;;;6267260;22;20411;-78
2023/04/15 06:55:19;;;;;;;237.50;227.33;;;7.40;99.90;;;;;;6256049;22;20716;-79
2023/04/15 06:57:46;;;;;;;201.50;191.80;;;7.70;99.90;;;;;;6243714;23;20415;-79
2023/04/15 07:00:15;;;;;;;51.23;46.43;;;7.90;99.90;;;;;;6245077;23;20414;-79
2023/04/15 07:02:42;;;;;;;35.73;28.13;;;8.10;99.90;;;;;;6242638;22;20415;-79
2023/04/15 07:05:10;;;;;;;27.03;20.70;;;8.30;99.90;;;;;;6244128;23;20422;-80
2023/04/15 07:07:38;;;;;;;25.17;20.60;;;8.70;99.90;;;;;;6245011;22;20415;-81
2023/04/15 07:10:10;;;;;;;24.70;17.60;;;8.70;99.90;;;;;;6244589;23;20414;-80
2023/04/15 07:12:38;;;;;;;25.90;16.67;;;8.90;99.90;;;;;;6245534;22;20157;-79
2023/04/15 07:15:11;;;;;;;19.43;14.07;;;9.10;99.90;;;;;;6244000;22;20505;-80
2023/04/15 07:17:42;;;;;;;21.57;12.67;;;9.50;99.90;;;;;;6245357;23;20780;-80
2023/04/15 07:22:50;;;;;;;21.83;12.43;;;9.90;99.90;;;;;;6239755;22;20437;-79
2023/04/15 07:25:19;;;;;;;15.50;9.50;;;10.10;99.90;;;;;;6217998;23;20411;-80
2023/04/15 07:27:47;;;;;;;16.80;11.27;;;10.40;99.90;;;;;;6244783;23;20413;-80
2023/04/15 07:30:15;;;;;;;15.33;11.10;;;10.50;99.90;;;;;;6244690;23;20946;-80
2023/04/15 07:32:42;;;;;;;17.60;11.10;;;10.50;97.80;;;;;;6244863;22;20498;-78
2023/04/15 07:35:12;;;;;;;19.83;12.00;;;11.00;99.40;;;;;;6244125;23;20411;-81
2023/04/15 07:37:39;;;;;;;20.80;11.23;;;11.10;98.10;;;;;;6243851;23;20418;-78
2023/04/15 07:40:07;;;;;;;17.67;10.83;;;11.00;98.00;;;;;;6243688;23;20941;-79
2023/04/15 07:42:37;;;;;;;18.67;10.93;;;11.00;98.50;;;;;;6244167;23;21164;-79
2023/04/15 07:45:04;;;;;;;19.90;11.40;;;10.90;98.10;;;;;;6254835;23;20418;-79
2023/04/15 07:47:31;;;;;;;19.03;12.13;;;11.00;97.50;;;;;;6244846;23;20950;-79
2023/04/15 07:49:59;;;;;;;15.40;10.70;;;11.00;98.10;;;;;;6244572;23;20969;-80
2023/04/15 07:52:26;;;;;;;19.90;11.07;;;11.20;98.40;;;;;;6255071;23;20905;-79
2023/04/15 07:54:53;;;;;;;14.07;9.90;;;11.20;98.10;;;;;;6217866;23;20493;-79
2023/04/15 07:57:20;;;;;;;19.00;10.53;;;11.30;98.10;;;;;;6244562;23;20895;-79
2023/04/15 07:59:48;;;;;;;16.47;10.87;;;11.50;96.30;;;;;;6245364;23;20461;-80
2023/04/15 08:02:15;;;;;;;15.23;9.70;;;11.80;97.20;;;;;;6244881;23;20439;-80
2023/04/15 08:04:45;;;;;;;11.43;8.47;;;12.10;96.40;;;;;;6243870;22;20441;-80
2023/04/15 08:07:11;;;;;;;12.00;6.27;;;12.20;92.90;;;;;;6244486;23;20418;-80
2023/04/15 08:09:38;;;;;;;7.87;4.00;;;12.30;90.60;;;;;;6243720;23;20502;-80
2023/04/15 08:12:08;;;;;;;8.33;4.37;;;12.50;85.30;;;;;;6244785;23;20421;-80
2023/04/15 08:14:36;;;;;;;8.17;3.00;;;12.80;81.80;;;;;;6244859;22;20431;-81
2023/04/15 08:17:07;;;;;;;8.17;4.40;;;12.80;79.50;;;;;;6244750;23;20424;-81
2023/04/15 08:19:35;;;;;;;10.80;4.73;;;13.10;78.90;;;;;;6218961;23;20407;-81
2023/04/15 08:22:03;;;;;;;6.43;3.13;;;13.10;79.80;;;;;;6245422;22;20419;-80
2023/04/15 08:24:31;;;;;;;6.37;3.43;;;12.90;77.70;;;;;;6245101;22;20442;-80
2023/04/15 08:26:58;;;;;;;12.83;4.30;;;12.90;75.60;;;;;;6244502;23;20454;-79
2023/04/15 08:29:26;;;;;;;9.00;4.30;;;12.90;74.50;;;;;;6244902;23;20497;-79
2023/04/15 08:31:55;;;;;;;10.50;4.00;;;13.00;77.10;;;;;;6244793;23;20423;-80
2023/04/15 08:34:24;;;;;;;7.90;3.77;;;13.30;77.30;;;;;;6244144;22;20462;-80
2023/04/15 08:36:52;;;;;;;7.00;3.27;;;13.30;76.80;;;;;;6217188;23;20419;-80
2023/04/15 08:39:20;;;;;;;6.27;3.70;;;13.40;71.30;;;;;;6217182;23;20411;-81
2023/04/15 08:41:48;;;;;;;7.43;2.90;;;12.90;68.40;;;;;;6244316;23;20924;-80
2023/04/15 08:44:15;;;;;;;8.80;3.90;;;12.80;71.00;;;;;;6216885;23;20436;-80
2023/04/15 08:46:43;;;;;;;6.70;3.30;;;12.80;70.20;;;;;;6244104;23;20411;-80
2023/04/15 08:49:12;;;;;;;6.90;3.30;;;12.70;69.20;;;;;;6244073;23;20434;-80
2023/04/15 08:51:41;;;;;;;6.50;3.53;;;12.60;69.20;;;;;;6244687;23;20411;-80
2023/04/15 08:54:09;;;;;;;9.30;4.17;;;12.80;69.60;;;;;;6243995;22;20439;-81
2023/04/15 08:56:39;;;;;;;7.47;3.50;;;13.20;72.00;;;;;;6218036;23;20439;-80
2023/04/15 08:59:10;;;;;;;7.17;3.00;;;13.30;70.80;;;;;;6254983;23;20417;-80
2023/04/15 09:01:38;;;;;;;7.27;4.03;;;13.40;67.70;;;;;;6244316;23;20402;-80
2023/04/15 09:04:06;;;;;;;8.00;3.97;;;13.20;63.90;;;;;;6242694;22;20431;-80
2023/04/15 09:06:35;;;;;;;7.17;3.60;;;13.30;64.00;;;;;;6243140;23;20819;-80
2023/04/15 09:09:06;;;;;;;8.73;4.00;;;13.10;63.80;;;;;;6243708;23;20437;-80
2023/04/15 09:11:34;;;;;;;7.40;3.70;;;13.20;63.90;;;;;;6243914;23;20395;-80
2023/04/15 09:14:02;;;;;;;12.83;4.60;;;13.30;63.40;;;;;;6244527;22;20439;-80
2023/04/15 09:16:30;;;;;;;4.87;2.17;;;13.90;64.50;;;;;;6216881;23;20511;-80
2023/04/15 09:18:57;;;;;;;7.77;3.63;;;13.90;61.50;;;;;;6217620;23;20413;-80
2023/04/15 09:21:25;;;;;;;6.20;3.30;;;14.30;64.70;;;;;;6244189;22;20488;-81
2023/04/15 09:23:57;;;;;;;7.17;4.00;;;13.90;58.10;;;;;;6244737;22;20514;-80
2023/04/15 09:26:44;;;;;;;8.60;3.97;;;14.00;64.60;;;;;;6244087;23;20445;-80
2023/04/15 09:29:13;;;;;;;7.00;2.53;;;13.70;58.10;;;;;;6243611;23;20480;-77
2023/04/15 09:31:42;;;;;;;6.23;2.60;;;13.50;57.90;;;;;;6243231;23;20894;-80
2023/04/15 09:34:09;;;;;;;8.10;3.80;;;13.70;57.90;;;;;;6243410;22;20439;-80
2023/04/15 09:36:53;;;;;;;6.90;3.63;;;14.20;62.00;;;;;;6243507;23;20419;-80
2023/04/15 09:39:20;;;;;;;8.18;4.70;;;14.30;56.50;;;;;;6216271;23;20467;-81
2023/04/15 09:42:05;;;;;;;9.37;5.40;;;14.30;60.30;;;;;;6217719;23;20655;-81
2023/04/15 09:44:32;;;;;;;8.23;3.67;;;14.40;53.90;;;;;;6242943;22;20434;-80
2023/04/15 09:46:59;;;;;;;8.73;4.53;;;14.20;56.50;;;;;;6243364;23;20498;-81
2023/04/15 09:49:27;;;;;;;10.63;5.40;;;14.20;64.80;;;;;;6242875;23;20461;-79
2023/04/15 09:51:59;;;;;;;7.47;4.03;;;14.30;61.60;;;;;;6243678;23;20413;-82
2023/04/15 09:54:34;;;;;;;8.87;3.50;;;14.20;56.50;;;;;;6244454;22;20524;-81
2023/04/15 09:57:08;;;;;;;6.07;2.70;;;14.30;56.50;;;;;;6192304;23;20761;-81
2023/04/15 09:59:37;;;;;;;5.93;2.80;;;14.30;56.60;;;;;;6216515;23;20410;-82
2023/04/15 10:02:07;;;;;;;5.30;2.33;;;14.20;56.50;;;;;;6242722;23;20892;-81
2023/04/15 10:04:41;;;;;;;4.90;2.10;;;13.80;52.20;;;;;;6242486;22;20278;-81
2023/04/15 10:07:09;;;;;;;4.57;1.80;;;14.20;56.50;;;;;;6215618;23;20495;-80
2023/04/15 10:09:39;;;;;;;5.83;2.57;;;14.30;52.40;;;;;;6216806;23;20511;-81
2023/04/15 10:12:09;;;;;;;6.10;2.43;;;14.20;53.50;;;;;;6243802;23;20417;-81
2023/04/15 10:14:39;;;;;;;4.70;1.90;;;14.40;53.50;;;;;;6243206;22;20431;-81
2023/04/15 10:17:14;;;;;;;7.40;2.93;;;14.40;51.90;;;;;;6215835;23;20930;-81
2023/04/15 10:19:42;;;;;;;7.17;3.10;;;14.70;54.80;;;;;;6216420;23;20421;-81
2023/04/15 10:22:10;;;;;;;6.07;3.00;;;15.50;54.80;;;;;;6223655;23;20428;-81
2023/04/15 10:24:40;;;;;;;12.20;4.50;;;15.90;52.60;;;;;;6243233;22;20967;-81
2023/04/15 10:27:10;;;;;;;7.93;4.33;;;15.80;50.50;;;;;;6252089;22;20425;-81
2023/04/15 10:29:41;;;;;;;11.60;4.83;;;15.70;56.50;;;;;;6243020;22;20437;-81
2023/04/15 10:32:12;;;;;;;8.60;3.50;;;15.70;52.00;;;;;;6242470;22;20416;-81
2023/04/15 10:34:42;;;;;;;5.83;3.33;;;15.40;56.10;;;;;;6243071;22;20458;-82
2023/04/15 10:37:12;;;;;;;6.17;2.70;;;15.00;57.30;;;;;;6241918;23;20426;-82
2023/04/15 10:39:43;;;;;;;9.63;4.23;;;14.20;55.30;;;;;;6241929;23;20501;-81
2023/04/15 10:42:12;;;;;;;7.47;4.00;;;14.10;56.40;;;;;;6241656;22;20417;-80
2023/04/15 10:44:42;;;;;;;5.60;2.63;;;14.90;55.50;;;;;;6241506;22;20496;-80
2023/04/15 10:47:13;;;;;;;7.03;3.60;;;14.80;49.70;;;;;;6243146;23;20502;-80
2023/04/15 10:49:45;;;;;;;9.33;4.77;;;14.90;58.80;;;;;;6253449;23;20821;-81
2023/04/15 10:52:12;;;;;;;5.93;3.20;;;14.30;59.40;;;;;;6243058;23;20718;-80
2023/04/15 10:54:40;;;;;;;9.27;4.37;;;14.30;56.50;;;;;;6243119;22;20431;-80
2023/04/15 10:57:11;;;;;;;7.77;4.33;;;14.30;59.60;;;;;;6242786;23;20410;-81
2023/04/15 11:00:03;;;;;;;7.30;3.67;;;13.70;62.30;;;;;;6241878;23;20477;-80
2023/04/15 11:02:41;;;;;;;8.90;3.93;;;13.70;65.70;;;;;;6242291;22;21019;-80
2023/04/15 11:05:09;;;;;;;7.40;3.27;;;13.90;62.50;;;;;;6241843;22;20929;-80
2023/04/15 11:07:50;;;;;;;5.90;3.07;;;14.00;56.30;;;;;;6240172;23;20413;-80
2023/04/15 11:10:51;;;;;;;15.60;2.57;;;14.70;56.40;;;;;;6241985;23;20956;-80
2023/04/15 11:13:28;;;;;;;5.17;2.67;;;15.00;52.60;;;;;;6243262;22;20779;-80
2023/04/15 11:16:02;;;;;;;5.50;3.27;;;15.20;52.40;;;;;;6240661;23;20456;-81
2023/04/15 11:18:32;;;;;;;7.23;4.67;;;15.20;51.80;;;;;;6242297;23;20729;-80
2023/04/15 11:21:02;;;;;;;8.10;5.37;;;14.80;53.80;;;;;;6244262;22;20418;-80
2023/04/15 11:23:37;;;;;;;9.97;6.00;;;14.50;60.00;;;;;;6217042;23;20811;-80
2023/04/15 11:26:08;;;;;;;9.20;7.63;;;14.10;64.80;;;;;;6245318;23;20811;-80
2023/04/15 11:28:36;;;;;;;9.10;5.77;;;13.50;65.90;;;;;;6244010;23;20507;-80
2023/04/15 11:31:12;;;;;;;9.80;7.30;;;13.40;60.20;;;;;;6245288;23;20468;-80
2023/04/15 11:33:46;;;;;;;9.50;6.40;;;13.40;61.90;;;;;;6244772;22;20457;-80
2023/04/15 11:36:13;;;;;;;8.27;5.47;;;13.10;66.50;;;;;;6244594;23;20415;-79
2023/04/15 11:38:44;;;;;;;8.77;6.60;;;12.80;66.40;;;;;;6244442;23;20411;-79
2023/04/15 11:41:11;;;;;;;11.53;9.70;;;12.70;65.90;;;;;;6245127;22;20417;-79
2023/04/15 11:43:38;;;;;;;10.27;7.50;;;12.90;72.70;;;;;;6241933;22;20446;-80
2023/04/15 11:46:07;;;;;;;10.60;8.60;;;12.80;72.00;;;;;;6216579;23;20418;-80
2023/04/15 11:48:37;;;;;;;11.00;8.30;;;12.60;73.00;;;;;;6243734;22;20461;-80
2023/04/15 11:51:07;;;;;;;12.00;8.53;;;12.70;72.20;;;;;;6243429;23;20513;-79
2023/04/15 11:53:39;;;;;;;11.80;9.27;;;13.10;73.80;;;;;;6244481;22;20463;-79
2023/04/15 11:56:08;;;;;;;10.33;8.33;;;13.10;68.30;;;;;;6244118;23;20423;-79
2023/04/15 11:58:37;;;;;;;10.90;8.07;;;13.20;67.80;;;;;;6242288;23;20419;-79
2023/04/15 12:01:06;;;;;;;14.03;10.20;;;13.40;67.10;;;;;;6244688;23;20407;-80
2023/04/15 12:03:39;;;;;;;14.80;11.03;;;13.50;68.10;;;;;;6242545;22;20799;-80
2023/04/15 12:06:16;;;;;;;10.83;7.80;;;13.20;66.40;;;;;;6242288;23;20493;-80
2023/04/15 12:09:03;;;;;;;11.87;9.03;;;13.20;66.60;;;;;;6244053;22;20733;-79
2023/04/15 12:11:37;;;;;;;12.03;7.97;;;13.20;66.40;;;;;;6243889;23;20431;-80
2023/04/15 12:14:07;;;;;;;10.83;6.70;;;13.10;65.70;;;;;;6252687;22;20602;-80
2023/04/15 12:16:36;;;;;;;9.60;7.17;;;12.90;66.70;;;;;;6241840;23;20642;-80
2023/04/15 12:19:08;;;;;;;14.20;5.93;;;13.00;71.40;;;;;;6242784;23;20901;-79
2023/04/15 12:21:38;;;;;;;9.30;5.90;;;12.80;68.40;;;;;;6244651;22;20415;-79
2023/04/15 12:24:08;;;;;;;7.13;4.20;;;13.00;70.80;;;;;;6243838;22;20502;-79
2023/04/15 12:26:38;;;;;;;6.67;3.63;;;13.00;67.50;;;;;;6243615;23;20931;-80
2023/04/15 12:29:06;;;;;;;6.23;2.90;;;13.20;69.20;;;;;;6243852;23;20413;-80
2023/04/15 12:31:34;;;;;;;6.63;3.80;;;13.00;67.90;;;;;;6244177;23;20811;-80
2023/04/15 12:34:09;;;;;;;6.70;3.23;;;13.00;69.70;;;;;;6244132;22;20432;-80
2023/04/15 12:36:37;;;;;;;8.50;3.03;;;12.90;70.90;;;;;;6243363;23;20931;-80
2023/04/15 12:39:05;;;;;;;7.27;3.83;;;12.90;71.10;;;;;;6244067;23;20526;-81
2023/04/15 12:41:32;;;;;;;10.17;3.50;;;13.00;70.80;;;;;;6243400;23;20421;-80
2023/04/15 12:44:00;;;;;;;5.40;2.50;;;13.00;73.40;;;;;;6217149;23;20485;-80
2023/04/15 12:46:28;;;;;;;6.60;3.50;;;13.00;69.20;;;;;;6216686;23;20495;-80
2023/04/15 12:48:55;;;;;;;7.30;3.90;;;13.00;69.00;;;;;;6216804;23;20503;-80
2023/04/15 12:51:22;;;;;;;6.83;3.53;;;12.80;69.70;;;;;;6243887;23;20813;-79
2023/04/15 12:53:52;;;;;;;8.27;4.53;;;12.50;73.50;;;;;;6243609;22;20431;-80
2023/04/15 12:56:18;;;;;;;7.40;3.90;;;12.20;73.00;;;;;;6242978;23;20438;-80
2023/04/15 12:58:45;;;;;;;8.80;4.10;;;11.90;72.10;;;;;;6243348;23;20415;-80
2023/04/15 13:01:12;;;;;;;6.30;3.13;;;11.80;74.50;;;;;;6244555;23;20412;-79
2023/04/15 13:03:39;;;;;;;9.50;5.77;;;11.90;75.10;;;;;;6243621;22;20942;-79
2023/04/15 13:06:08;;;;;;;6.07;3.53;;;12.10;75.10;;;;;;6216682;23;21110;-79
2023/04/15 13:08:38;;;;;;;6.27;2.97;;;12.20;73.20;;;;;;6243063;23;20930;-80
2023/04/15 13:11:06;;;;;;;6.43;3.13;;;12.30;73.80;;;;;;6243997;23;20778;-79
2023/04/15 13:13:33;;;;;;;5.43;2.90;;;12.20;73.80;;;;;;6243862;22;20431;-78
2023/04/15 13:16:00;;;;;;;6.83;3.40;;;12.10;77.50;;;;;;6243291;23;20807;-79
2023/04/15 13:18:27;;;;;;;6.30;3.47;;;12.00;76.70;;;;;;6243722;23;20411;-79